createdAt,value
2022-08-18T00:03:18.480Z,4.60
2022-08-18T00:08:48.363Z,4.10
2022-08-18T00:14:23.204Z,2.97
2022-08-18T00:19:48.438Z,3.88
2022-08-18T00:24:56.330Z,3.20
2022-08-18T00:30:11.467Z,5.93
2022-08-18T00:35:29.048Z,3.33
2022-08-18T00:40:42.311Z,4.18
2022-08-18T00:45:51.652Z,4.03
2022-08-18T00:56:29.324Z,5.05
2022-08-18T01:01:39.919Z,3.88
2022-08-18T01:06:55.532Z,7.43
2022-08-18T01:12:00.064Z,4.22
2022-08-18T01:17:26.913Z,3.90
2022-08-18T01:22:54.075Z,4.03
2022-08-18T01:28:29.675Z,6.25
2022-08-18T01:33:39.252Z,3.40
2022-08-18T01:39:03.851Z,3.20
2022-08-18T01:44:16.761Z,4.95
2022-08-18T01:49:31.437Z,4.63
2022-08-18T01:54:50.156Z,5.60
2022-08-18T02:00:07.794Z,4.75
2022-08-18T02:05:23.091Z,5.45
2022-08-18T02:10:36.439Z,6.38
2022-08-18T02:15:45.653Z,4.15
2022-08-18T02:20:58.868Z,6.53
2022-08-18T02:26:13.406Z,7.72
2022-08-18T02:31:27.948Z,3.80
2022-08-18T02:36:35.189Z,3.83
2022-08-18T02:41:40.560Z,6.18
2022-08-18T02:46:59.308Z,8.30
2022-08-18T02:52:08.124Z,5.22
2022-08-18T02:57:14.070Z,6.07
2022-08-18T03:02:22.175Z,9.93
2022-08-18T03:07:28.347Z,8.13
2022-08-18T03:12:38.126Z,7.20
2022-08-18T03:17:59.656Z,6.82
2022-08-18T03:23:09.717Z,7.70
2022-08-18T03:28:21.861Z,3.75
2022-08-18T03:33:33.192Z,4.25
2022-08-18T03:38:44.201Z,5.05
2022-08-18T03:44:04.360Z,4.07
2022-08-18T03:49:19.889Z,5.88
2022-08-18T03:54:27.972Z,5.93
2022-08-18T03:59:50.068Z,7.10
2022-08-18T04:04:57.989Z,7.15
2022-08-18T04:10:19.414Z,6.80
2022-08-18T04:15:34.924Z,5.05
2022-08-18T04:20:58.900Z,3.55
2022-08-18T04:26:20.134Z,6.43
2022-08-18T04:36:56.614Z,6.78
2022-08-18T04:42:06.061Z,7.47
2022-08-18T04:47:27.147Z,9.85
2022-08-18T04:53:04.147Z,9.90
2022-08-18T04:58:18.169Z,7.25
2022-08-18T05:03:41.253Z,5.03
2022-08-18T05:09:01.352Z,6.72
2022-08-18T05:14:10.898Z,8.20
2022-08-18T05:19:29.285Z,11.43
2022-08-18T05:24:55.474Z,4.55
2022-08-18T05:30:04.705Z,8.27
2022-08-18T05:35:16.980Z,4.40
2022-08-18T05:40:27.060Z,10.82
2022-08-18T05:45:38.123Z,5.43
2022-08-18T05:50:44.807Z,6.47
2022-08-18T05:56:19.456Z,6.45
2022-08-18T06:01:53.176Z,9.15
2022-08-18T06:06:59.301Z,8.23
2022-08-18T06:12:24.276Z,7.30
2022-08-18T06:17:56.241Z,10.00
2022-08-18T06:23:14.094Z,4.50
2022-08-18T06:28:21.453Z,5.90
2022-08-18T06:33:46.015Z,7.68
2022-08-18T06:39:04.163Z,6.50
2022-08-18T06:44:13.929Z,9.57
2022-08-18T06:49:33.252Z,6.72
2022-08-18T06:54:51.294Z,4.93
2022-08-18T07:00:08.387Z,9.50
2022-08-18T07:05:21.089Z,7.57
2022-08-18T07:10:46.670Z,11.35
2022-08-18T07:15:52.496Z,10.88
2022-08-18T07:21:02.690Z,9.27
2022-08-18T07:26:15.620Z,11.73
2022-08-18T07:31:41.930Z,9.82
2022-08-18T07:36:59.909Z,7.20
2022-08-18T07:42:15.114Z,7.38
2022-08-18T07:48:15.857Z,9.35
2022-08-18T07:53:55.828Z,8.15
2022-08-18T07:59:13.639Z,10.73
2022-08-18T08:04:37.701Z,12.63
2022-08-18T08:09:53.322Z,10.75
2022-08-18T08:15:15.233Z,10.98
2022-08-18T08:20:36.949Z,10.38
2022-08-18T08:25:59.434Z,10.35
2022-08-18T08:31:36.153Z,9.63
2022-08-18T08:36:54.202Z,8.77
2022-08-18T08:42:30.919Z,10.30
2022-08-18T08:47:46.306Z,14.25
2022-08-18T08:53:03.915Z,13.80
2022-08-18T08:58:25.044Z,9.48
2022-08-18T09:03:43.252Z,10.23
2022-08-18T09:09:12.155Z,11.13
2022-08-18T09:14:59.280Z,10.85
2022-08-18T09:20:37.740Z,13.20
2022-08-18T09:26:23.011Z,8.55
2022-08-18T09:31:42.325Z,13.25
2022-08-18T09:37:11.144Z,21.50
2022-08-18T09:42:29.945Z,8.82
2022-08-18T09:53:59.570Z,10.88
2022-08-18T09:59:55.070Z,11.45
2022-08-18T10:05:37.334Z,11.68
2022-08-18T10:11:15.204Z,8.05
2022-08-18T10:17:13.412Z,12.70
2022-08-18T10:22:16.044Z,9.90
2022-08-18T10:28:07.795Z,8.40
2022-08-18T10:34:05.549Z,15.88
2022-08-18T10:39:43.953Z,9.32
2022-08-18T10:45:07.468Z,8.93
2022-08-18T10:50:32.292Z,7.75
2022-08-18T10:56:01.261Z,12.82
2022-08-18T11:01:18.749Z,13.63
2022-08-18T11:06:27.328Z,8.90
2022-08-18T11:11:42.235Z,13.60
2022-08-18T11:17:04.608Z,9.40
2022-08-18T11:27:57.729Z,11.32
2022-08-18T11:33:03.331Z,17.02
2022-08-18T11:43:46.606Z,10.75
2022-08-18T11:48:54.999Z,6.10
2022-08-18T11:54:03.337Z,12.52
2022-08-18T11:59:16.463Z,5.70
2022-08-18T12:10:19.388Z,6.57
2022-08-18T12:15:46.841Z,6.75
2022-08-18T12:20:52.299Z,5.43
2022-08-18T12:26:01.159Z,6.00
2022-08-18T12:31:17.068Z,9.23
2022-08-18T12:36:23.403Z,7.00
2022-08-18T12:41:37.375Z,12.07
2022-08-18T12:46:44.584Z,8.82
2022-08-18T12:51:50.746Z,8.73
2022-08-18T12:56:59.262Z,11.57
2022-08-18T13:02:09.242Z,9.90
2022-08-18T13:07:28.521Z,8.45
2022-08-18T13:12:43.198Z,13.35
2022-08-18T13:17:55.350Z,10.43
2022-08-18T13:23:06.051Z,9.82
2022-08-18T13:28:25.345Z,12.30
2022-08-18T13:33:57.166Z,11.38
2022-08-18T13:39:09.539Z,11.90
2022-08-18T13:44:25.774Z,9.45
2022-08-18T13:49:52.553Z,13.10
2022-08-18T13:55:16.870Z,9.88
2022-08-18T14:00:43.975Z,13.55
2022-08-18T14:05:51.773Z,12.05
2022-08-18T14:11:03.400Z,8.05
2022-08-18T14:16:23.784Z,10.57
2022-08-18T14:21:49.832Z,8.50
2022-08-18T14:26:55.910Z,12.98
2022-08-18T14:32:06.160Z,9.80
2022-08-18T14:37:10.865Z,11.35
2022-08-18T14:42:32.798Z,8.98
2022-08-18T14:47:50.333Z,11.43
2022-08-18T14:53:00.273Z,12.35
2022-08-18T14:58:07.505Z,16.10
2022-08-18T15:03:21.413Z,11.93
2022-08-18T15:08:49.984Z,14.02
2022-08-18T15:14:06.560Z,15.80
2022-08-18T15:19:58.876Z,12.85
2022-08-18T15:25:27.236Z,12.95
2022-08-18T15:30:50.993Z,11.35
2022-08-18T15:36:05.589Z,13.23
2022-08-18T15:41:44.090Z,11.85
2022-08-18T15:47:01.078Z,10.80
2022-08-18T15:52:39.234Z,12.45
2022-08-18T15:58:03.964Z,10.05
2022-08-18T16:03:35.945Z,10.57
2022-08-18T16:08:47.147Z,24.38
2022-08-18T16:13:54.627Z,15.95
2022-08-18T16:19:06.663Z,11.95
2022-08-18T16:24:18.255Z,10.35
2022-08-18T16:29:30.074Z,10.10
2022-08-18T16:34:36.669Z,11.07
2022-08-18T16:39:47.353Z,10.38
2022-08-18T16:44:53.925Z,11.65
2022-08-18T16:49:59.170Z,14.77
2022-08-18T16:55:15.447Z,12.30
2022-08-18T17:00:40.237Z,12.63
2022-08-18T17:05:47.260Z,13.13
2022-08-18T17:11:00.537Z,13.60
2022-08-18T17:16:10.769Z,15.88
2022-08-18T17:21:25.773Z,14.18
2022-08-18T17:26:52.689Z,13.80
2022-08-18T17:32:02.003Z,14.95
2022-08-18T17:37:12.704Z,13.07
2022-08-18T17:42:40.099Z,14.52
2022-08-18T17:47:53.428Z,12.05
2022-08-18T17:53:06.372Z,11.65
2022-08-18T17:58:21.971Z,10.75
2022-08-18T18:03:28.163Z,9.48
2022-08-18T18:09:01.037Z,10.00
2022-08-18T18:14:27.207Z,9.38
2022-08-18T18:19:42.219Z,9.30
2022-08-18T18:25:08.689Z,9.05
2022-08-18T18:30:27.825Z,8.80
2022-08-18T18:35:54.861Z,8.88
2022-08-18T18:41:07.789Z,9.07
2022-08-18T18:46:32.323Z,9.55
2022-08-18T18:51:45.692Z,10.25
2022-08-18T18:56:57.805Z,11.07
2022-08-18T19:02:33.034Z,10.48
2022-08-18T19:07:57.616Z,11.25
2022-08-18T19:13:25.079Z,10.73
2022-08-18T19:18:57.728Z,8.93
2022-08-18T19:24:23.405Z,8.98
2022-08-18T19:29:35.054Z,8.55
2022-08-18T19:34:52.607Z,8.05
2022-08-18T19:40:20.242Z,8.00
2022-08-18T19:45:57.573Z,7.90
2022-08-18T19:51:10.378Z,7.15
2022-08-18T19:56:37.359Z,6.70
2022-08-18T20:02:00.323Z,8.60
2022-08-18T20:07:38.632Z,9.63
2022-08-18T20:13:06.590Z,9.40
2022-08-18T20:18:23.330Z,10.20
2022-08-18T20:23:39.723Z,10.27
2022-08-18T20:28:54.277Z,9.75
2022-08-18T20:34:14.556Z,11.20
2022-08-18T20:39:52.544Z,12.90
2022-08-18T20:45:03.851Z,14.57
2022-08-18T20:50:45.608Z,14.48
2022-08-18T20:56:31.787Z,15.80
2022-08-18T21:01:31.099Z,13.95
2022-08-18T21:06:54.186Z,15.70
2022-08-18T21:12:03.544Z,15.00
2022-08-18T21:17:18.406Z,14.25
2022-08-18T21:22:27.833Z,13.60
2022-08-18T21:27:41.135Z,13.20
2022-08-18T21:32:54.675Z,14.52
2022-08-18T21:38:17.252Z,14.30
2022-08-18T21:43:49.378Z,13.82
2022-08-18T21:48:59.367Z,15.02
2022-08-18T21:54:13.810Z,14.52
2022-08-18T21:59:30.584Z,12.18
2022-08-18T22:04:55.277Z,12.50
2022-08-18T22:10:22.594Z,13.70
2022-08-18T22:15:44.592Z,16.70
2022-08-18T22:20:57.733Z,14.60
2022-08-18T22:31:38.232Z,14.85
2022-08-18T22:36:49.423Z,14.05
2022-08-18T22:47:24.801Z,15.02
2022-08-18T22:52:35.594Z,14.25
2022-08-18T22:57:44.172Z,16.10
2022-08-18T23:02:53.971Z,16.65
2022-08-18T23:07:59.305Z,16.08
2022-08-18T23:13:05.656Z,16.10
2022-08-18T23:18:14.218Z,17.02
2022-08-18T23:23:25.286Z,18.48
2022-08-18T23:28:56.267Z,21.15
2022-08-18T23:34:11.294Z,17.73
2022-08-18T23:39:19.994Z,20.42
2022-08-18T23:44:30.015Z,18.95
2022-08-18T23:49:44.708Z,23.38
2022-08-18T23:54:57.235Z,22.83
